Time;durP1;ratioP1;P1;durP2;ratioP2;P2;SDS_P1;SDS_P2;PMS_P1;PMS_P2;Temp;Humidity;BMP_temperature;BMP_pressure;BME280_temperature;BME280_humidity;BME280_pressure;Samples;Min_cycle;Max_cycle;Signal;HPM_P1;HPM_P2
2022/12/17 13:08:09;;;;;;;15.63;5.60;;;-2.90;99.90;;;;;;5010410;28;20963;-67
2022/12/17 13:10:36;;;;;;;11.43;6.00;;;-3.00;99.90;;;;;;5000140;28;20447;-68
2022/12/17 13:13:37;;;;;;;7.70;4.73;;;-3.00;99.90;;;;;;5026833;28;20452;-67
2022/12/17 13:16:31;;;;;;;5.80;3.47;;;-3.10;99.90;;;;;;5019494;28;20512;-67
2022/12/17 13:19:39;;;;;;;10.50;4.03;;;-3.00;99.90;;;;;;5024298;28;20447;-67
2022/12/17 13:22:14;;;;;;;9.60;5.10;;;-2.90;99.90;;;;;;5019370;28;20465;-68
2022/12/17 13:24:41;;;;;;;18.37;6.00;;;-2.90;99.90;;;;;;5009329;28;20607;-69
2022/12/17 13:27:31;;;;;;;10.20;4.70;;;-2.90;99.90;;;;;;4985148;28;20461;-67
2022/12/17 13:30:13;;;;;;;10.67;5.90;;;-2.90;99.90;;;;;;5019514;28;20794;-68
2022/12/17 13:32:48;;;;;;;12.20;5.83;;;-2.90;99.90;;;;;;5014735;28;20452;-66
2022/12/17 13:35:29;;;;;;;21.40;6.67;;;-2.90;99.90;;;;;;5037338;28;20520;-67
2022/12/17 13:38:39;;;;;;;11.80;6.23;;;-2.90;99.90;;;;;;5019125;28;20454;-67
2022/12/17 13:41:10;;;;;;;14.23;7.00;;;-2.80;99.90;;;;;;5016285;28;20455;-67
2022/12/17 13:43:48;;;;;;;13.57;7.40;;;-2.80;99.90;;;;;;4996181;28;20939;-67
2022/12/17 13:46:16;;;;;;;19.03;7.07;;;-2.80;99.90;;;;;;5027946;28;20455;-67
2022/12/17 13:48:42;;;;;;;13.37;6.87;;;-2.90;99.90;;;;;;5032357;28;20482;-68
2022/12/17 13:51:19;;;;;;;11.37;5.73;;;-2.90;99.90;;;;;;5006744;28;20468;-67
2022/12/17 13:53:59;;;;;;;12.90;6.30;;;-2.80;99.90;;;;;;5040763;28;20699;-67
2022/12/17 13:56:33;;;;;;;12.37;4.07;;;-2.80;99.90;;;;;;5013181;28;20462;-68
2022/12/17 13:59:03;;;;;;;13.03;5.90;;;-2.80;99.90;;;;;;5030330;28;20976;-67
2022/12/17 14:01:30;;;;;;;11.37;4.60;;;-2.70;99.90;;;;;;5008277;28;20479;-66
2022/12/17 14:03:59;;;;;;;14.67;6.07;;;-2.70;99.90;;;;;;5033552;28;20459;-68
2022/12/17 14:06:33;;;;;;;19.47;6.87;;;-2.80;99.90;;;;;;5010276;28;20452;-67
2022/12/17 14:08:59;;;;;;;17.73;7.27;;;-2.70;99.90;;;;;;5010017;28;20478;-67
2022/12/17 14:14:33;;;;;;;21.93;7.60;;;-2.80;99.90;;;;;;5019376;28;20456;-67
2022/12/17 14:17:00;;;;;;;12.90;6.77;;;-2.80;99.90;;;;;;5020472;28;21045;-67
2022/12/17 14:19:26;;;;;;;22.27;9.13;;;-2.80;99.90;;;;;;5023917;28;21194;-68
2022/12/17 14:21:53;;;;;;;16.83;8.57;;;-2.70;99.90;;;;;;5011641;28;20463;-67
2022/12/17 14:24:25;;;;;;;26.67;10.30;;;-2.80;99.90;;;;;;5027346;28;20447;-68
2022/12/17 14:26:55;;;;;;;21.37;8.73;;;-2.80;99.90;;;;;;5013956;28;20455;-67
2022/12/17 14:29:26;;;;;;;20.07;7.70;;;-2.70;99.90;;;;;;5012559;28;20451;-67
2022/12/17 14:31:59;;;;;;;15.00;6.40;;;-2.70;99.90;;;;;;5027209;28;20466;-67
2022/12/17 14:34:25;;;;;;;17.57;7.17;;;-2.90;99.90;;;;;;5008584;28;20472;-67
2022/12/17 14:36:59;;;;;;;14.93;7.90;;;-2.90;99.90;;;;;;5021888;28;20456;-65
2022/12/17 14:39:29;;;;;;;18.80;7.20;;;-2.80;99.90;;;;;;5021655;28;20466;-68
2022/12/17 14:42:24;;;;;;;16.03;7.27;;;-2.80;99.90;;;;;;5021904;28;20459;-67
2022/12/17 14:44:56;;;;;;;12.73;5.27;;;-2.70;99.90;;;;;;5005548;28;20543;-66
2022/12/17 14:47:26;;;;;;;17.37;7.67;;;-2.70;99.90;;;;;;5029469;28;20467;-67
2022/12/17 14:49:57;;;;;;;26.03;8.37;;;-2.70;99.90;;;;;;5014050;28;20474;-66
2022/12/17 14:52:26;;;;;;;22.60;8.80;;;-2.60;99.90;;;;;;5024393;28;20459;-68
2022/12/17 14:54:51;;;;;;;23.00;9.70;;;-2.60;99.90;;;;;;5011500;28;20456;-66
2022/12/17 14:57:21;;;;;;;17.77;8.80;;;-2.60;99.90;;;;;;5032284;28;20447;-66
2022/12/17 14:59:47;;;;;;;22.70;10.20;;;-2.60;99.90;;;;;;5024595;28;20295;-67
2022/12/17 15:02:26;;;;;;;18.27;7.70;;;-2.60;99.90;;;;;;5036227;28;21106;-67
2022/12/17 15:05:00;;;;;;;20.47;8.73;;;-2.60;99.90;;;;;;5003160;28;20224;-66
2022/12/17 15:07:27;;;;;;;15.27;8.43;;;-2.50;99.90;;;;;;5029122;28;20452;-67
2022/12/17 15:09:59;;;;;;;27.87;9.83;;;-2.50;99.90;;;;;;5025497;28;20458;-66
2022/12/17 15:12:26;;;;;;;18.63;7.70;;;-2.60;99.90;;;;;;5022199;28;20483;-67
2022/12/17 15:14:52;;;;;;;23.77;9.37;;;-2.60;99.90;;;;;;5029657;28;20455;-67
2022/12/17 15:17:18;;;;;;;27.67;10.07;;;-2.60;99.90;;;;;;5014046;28;20466;-68
2022/12/17 15:19:44;;;;;;;32.40;14.70;;;-2.60;99.90;;;;;;5023668;28;20300;-67
2022/12/17 15:22:14;;;;;;;34.20;11.80;;;-2.60;99.90;;;;;;5033476;28;20212;-67
2022/12/17 15:24:40;;;;;;;32.23;11.60;;;-2.70;99.90;;;;;;5033086;28;20275;-67
2022/12/17 15:27:15;;;;;;;31.07;14.17;;;-2.60;99.90;;;;;;5027743;28;20447;-67
2022/12/17 15:29:42;;;;;;;30.83;10.50;;;-2.60;99.90;;;;;;5016380;28;20795;-68
2022/12/17 15:32:17;;;;;;;33.00;10.60;;;-2.60;99.90;;;;;;5011399;28;20452;-67
2022/12/17 15:34:43;;;;;;;28.33;8.60;;;-2.70;99.90;;;;;;5018425;28;20447;-67
2022/12/17 15:37:09;;;;;;;17.53;7.53;;;-2.60;99.90;;;;;;5027810;28;20450;-66
2022/12/17 15:39:35;;;;;;;19.63;7.77;;;-2.70;99.90;;;;;;5025104;28;20888;-67
2022/12/17 15:44:44;;;;;;;21.60;8.20;;;-2.60;99.90;;;;;;5025891;28;20751;-67
2022/12/17 15:47:10;;;;;;;24.93;10.03;;;-2.60;99.90;;;;;;5017977;28;20488;-67
2022/12/17 15:49:36;;;;;;;24.27;7.90;;;-2.60;99.90;;;;;;5022012;28;20248;-65
2022/12/17 15:52:01;;;;;;;20.00;7.60;;;-2.70;99.90;;;;;;5035260;28;20222;-66
2022/12/17 15:54:27;;;;;;;23.50;8.37;;;-2.80;99.90;;;;;;5027947;28;20236;-66
2022/12/17 15:56:54;;;;;;;23.70;11.30;;;-2.70;99.90;;;;;;5027198;28;20276;-64
2022/12/17 15:59:21;;;;;;;28.77;14.10;;;-2.70;99.90;;;;;;5019825;28;20220;-67
2022/12/17 16:01:47;;;;;;;24.77;11.17;;;-2.60;99.90;;;;;;5034874;28;20451;-67
2022/12/17 16:04:12;;;;;;;18.47;8.40;;;-2.60;99.90;;;;;;5029240;28;20490;-66
2022/12/17 16:06:38;;;;;;;18.00;8.37;;;-2.60;99.90;;;;;;5025872;28;20248;-67
2022/12/17 16:09:04;;;;;;;22.57;8.77;;;-2.60;99.90;;;;;;5010463;28;20278;-67
2022/12/17 16:11:29;;;;;;;17.37;7.80;;;-2.60;99.90;;;;;;4999573;28;20283;-66
2022/12/17 16:13:55;;;;;;;23.50;8.57;;;-2.60;99.90;;;;;;5019446;28;20227;-67
2022/12/17 16:16:22;;;;;;;22.10;9.40;;;-2.60;99.90;;;;;;5034056;28;20321;-67
2022/12/17 16:18:47;;;;;;;16.00;7.80;;;-2.70;99.90;;;;;;5021037;28;20447;-66
2022/12/17 16:21:13;;;;;;;22.37;10.23;;;-2.70;99.90;;;;;;5026579;28;20454;-67
2022/12/17 16:23:39;;;;;;;19.50;7.57;;;-2.70;99.90;;;;;;5032164;28;20233;-67
2022/12/17 16:26:07;;;;;;;17.27;7.13;;;-2.70;99.90;;;;;;5006973;28;20243;-67
2022/12/17 16:28:34;;;;;;;15.20;8.07;;;-2.70;99.90;;;;;;5016068;28;20244;-66
2022/12/17 16:31:09;;;;;;;14.73;7.80;;;-2.70;99.90;;;;;;5029610;28;20467;-66
2022/12/17 16:33:38;;;;;;;14.07;7.13;;;-2.80;99.90;;;;;;5027701;28;20459;-66
2022/12/17 16:36:05;;;;;;;16.10;7.10;;;-2.70;99.90;;;;;;5014950;28;20962;-67
2022/12/17 16:38:32;;;;;;;17.83;7.97;;;-2.70;99.90;;;;;;4998313;28;20554;-67
2022/12/17 16:41:00;;;;;;;22.00;9.27;;;-2.60;99.90;;;;;;5005226;28;20470;-65
2022/12/17 16:43:27;;;;;;;21.00;10.33;;;-2.60;99.90;;;;;;5020866;28;20483;-67
2022/12/17 16:45:54;;;;;;;23.90;9.03;;;-2.60;99.90;;;;;;5016131;28;20459;-68
2022/12/17 16:48:21;;;;;;;17.67;6.90;;;-2.80;99.90;;;;;;5028225;28;20506;-68
2022/12/17 16:50:48;;;;;;;21.10;8.90;;;-2.80;99.90;;;;;;5020899;28;20503;-68
2022/12/17 16:53:14;;;;;;;22.83;9.37;;;-2.70;99.90;;;;;;5021836;28;20440;-68
2022/12/17 16:55:41;;;;;;;28.63;10.80;;;-2.70;99.90;;;;;;5026458;28;20460;-67
2022/12/17 16:58:08;;;;;;;25.67;9.50;;;-2.70;99.90;;;;;;5035230;28;20589;-68
2022/12/17 17:00:34;;;;;;;14.10;7.67;;;-2.70;99.90;;;;;;5037624;28;20454;-68
2022/12/17 17:03:00;;;;;;;19.40;7.50;;;-2.80;99.90;;;;;;5024130;28;20464;-68
2022/12/17 17:05:26;;;;;;;14.57;8.33;;;-2.90;99.90;;;;;;5021059;28;20482;-68
2022/12/17 17:07:51;;;;;;;15.17;6.83;;;-2.80;99.90;;;;;;5023767;28;20368;-67
2022/12/17 17:10:17;;;;;;;18.73;8.10;;;-2.80;99.90;;;;;;5011915;28;20229;-68
2022/12/17 17:12:43;;;;;;;18.70;9.27;;;-2.80;99.90;;;;;;5036658;28;20301;-68
2022/12/17 17:15:09;;;;;;;19.53;8.90;;;-2.70;99.90;;;;;;5016956;28;20339;-68
2022/12/17 17:17:34;;;;;;;17.67;8.07;;;-2.70;99.90;;;;;;5025760;28;20217;-68
2022/12/17 17:20:00;;;;;;;18.77;7.67;;;-2.80;99.90;;;;;;5022819;28;20451;-69
2022/12/17 17:22:26;;;;;;;18.70;7.33;;;-2.80;99.90;;;;;;5024887;28;20225;-68
2022/12/17 17:24:51;;;;;;;20.97;7.50;;;-2.90;99.90;;;;;;5020928;28;20307;-68
2022/12/17 17:27:17;;;;;;;16.93;8.83;;;-2.90;99.90;;;;;;5030060;28;20248;-68
2022/12/17 17:29:43;;;;;;;11.17;6.80;;;-2.80;99.90;;;;;;5023385;28;20272;-68
2022/12/17 17:32:08;;;;;;;15.47;6.33;;;-2.80;99.90;;;;;;5014619;28;20216;-66
2022/12/17 17:34:35;;;;;;;20.03;7.67;;;-2.70;99.90;;;;;;5016081;28;20213;-66
2022/12/17 17:37:01;;;;;;;20.30;7.50;;;-2.80;99.90;;;;;;5018749;28;20212;-68
2022/12/17 17:39:27;;;;;;;12.97;7.30;;;-2.80;99.90;;;;;;5019460;28;20460;-67
2022/12/17 17:41:52;;;;;;;19.60;6.57;;;-2.70;99.90;;;;;;5027098;28;20224;-66
2022/12/17 17:44:18;;;;;;;19.30;7.77;;;-2.70;99.90;;;;;;5022658;28;20654;-68
2022/12/17 17:46:44;;;;;;;16.80;7.40;;;-2.70;99.90;;;;;;5010015;28;20599;-67
2022/12/17 17:49:10;;;;;;;20.63;9.87;;;-2.70;99.90;;;;;;5017687;28;20579;-68
2022/12/17 17:51:40;;;;;;;16.40;8.27;;;-2.70;99.90;;;;;;5023108;28;20256;-67
2022/12/17 17:54:06;;;;;;;19.37;8.60;;;-2.70;99.90;;;;;;5023869;28;20542;-67
2022/12/17 17:56:34;;;;;;;18.73;10.70;;;-2.70;99.90;;;;;;5023458;28;20551;-67
2022/12/17 17:59:04;;;;;;;27.10;12.10;;;-2.70;99.90;;;;;;5023318;28;20486;-68
2022/12/17 18:01:33;;;;;;;28.97;11.47;;;-2.70;99.90;;;;;;5014487;28;20487;-68
2022/12/17 18:04:03;;;;;;;20.10;9.50;;;-2.80;99.90;;;;;;5014572;28;20484;-68
2022/12/17 18:06:29;;;;;;;19.40;10.33;;;-2.70;99.90;;;;;;5026930;28;20467;-68
2022/12/17 18:08:56;;;;;;;19.03;8.43;;;-2.80;99.90;;;;;;5026867;28;20474;-67
2022/12/17 18:11:22;;;;;;;24.10;10.33;;;-2.80;99.90;;;;;;5003216;28;20237;-68
2022/12/17 18:13:55;;;;;;;15.97;8.40;;;-2.70;99.90;;;;;;5020871;28;20455;-67
2022/12/17 18:16:29;;;;;;;22.33;10.77;;;-2.70;99.90;;;;;;5026880;28;20514;-68
2022/12/17 18:18:58;;;;;;;21.30;8.40;;;-2.70;99.90;;;;;;5018084;28;20462;-67
2022/12/17 18:21:26;;;;;;;27.87;9.63;;;-2.70;99.90;;;;;;5015219;28;20515;-67
2022/12/17 18:23:58;;;;;;;19.00;9.83;;;-2.70;99.90;;;;;;5020696;28;20550;-67
2022/12/17 18:26:25;;;;;;;21.90;9.70;;;-2.70;99.90;;;;;;5019034;28;20463;-68
2022/12/17 18:28:51;;;;;;;27.00;11.37;;;-2.70;99.90;;;;;;5015799;28;20490;-69
2022/12/17 18:31:19;;;;;;;19.40;10.27;;;-2.70;99.90;;;;;;5022727;28;20468;-68
2022/12/17 18:33:48;;;;;;;28.40;8.30;;;-2.90;99.90;;;;;;5022171;28;20217;-68
2022/12/17 18:36:20;;;;;;;24.63;10.37;;;-2.80;99.90;;;;;;5027040;28;20459;-68
2022/12/17 18:38:46;;;;;;;21.07;10.40;;;-2.80;99.90;;;;;;5025837;28;20467;-69
2022/12/17 18:44:03;;;;;;;16.27;8.20;;;-2.80;99.90;;;;;;5024008;28;20479;-66
2022/12/17 18:46:29;;;;;;;20.57;9.90;;;-2.80;99.90;;;;;;5018755;28;20459;-67
2022/12/17 18:49:00;;;;;;;14.93;8.87;;;-2.80;99.90;;;;;;5021211;28;20455;-67
2022/12/17 18:51:27;;;;;;;18.97;9.77;;;-2.80;99.90;;;;;;5033663;28;20467;-68
2022/12/17 18:54:02;;;;;;;20.37;8.00;;;-2.80;99.90;;;;;;5021505;28;21016;-67
2022/12/17 18:56:28;;;;;;;15.90;8.83;;;-2.80;99.90;;;;;;5028150;28;20474;-68
2022/12/17 18:58:55;;;;;;;15.60;7.73;;;-2.80;99.90;;;;;;5022707;28;20471;-67
2022/12/17 19:01:27;;;;;;;16.03;8.30;;;-2.80;99.90;;;;;;5021742;28;20490;-68
2022/12/17 19:03:53;;;;;;;20.30;9.50;;;-2.80;99.90;;;;;;5029981;28;20471;-67
2022/12/17 19:06:20;;;;;;;17.60;7.90;;;-2.80;99.90;;;;;;5031135;28;20452;-68
2022/12/17 19:08:47;;;;;;;15.17;8.20;;;-2.80;99.90;;;;;;5026742;28;20447;-68
2022/12/17 19:11:17;;;;;;;20.10;10.10;;;-2.80;99.90;;;;;;5017823;28;20452;-67
2022/12/17 19:13:43;;;;;;;24.77;10.20;;;-2.90;99.90;;;;;;5020969;28;20458;-67
2022/12/17 19:16:13;;;;;;;20.03;10.40;;;-2.80;99.90;;;;;;5020982;28;20459;-67
2022/12/17 19:18:39;;;;;;;23.60;10.90;;;-2.80;99.90;;;;;;5006159;28;20487;-66
2022/12/17 19:21:07;;;;;;;28.30;12.80;;;-2.70;99.90;;;;;;5022264;28;20485;-66
2022/12/17 19:23:33;;;;;;;20.17;9.80;;;-2.70;99.90;;;;;;5019229;28;20487;-67
2022/12/17 19:26:13;;;;;;;18.17;10.00;;;-2.70;99.90;;;;;;5034014;28;20459;-67
2022/12/17 19:28:40;;;;;;;22.53;9.70;;;-2.80;99.90;;;;;;5042270;28;20227;-67
2022/12/17 19:31:07;;;;;;;22.27;8.63;;;-2.80;99.90;;;;;;5028318;28;20466;-67
2022/12/17 19:33:34;;;;;;;11.07;7.83;;;-2.80;99.90;;;;;;5019309;28;20548;-67
2022/12/17 19:36:09;;;;;;;22.50;9.80;;;-2.80;99.90;;;;;;4991404;28;20559;-67
2022/12/17 19:38:35;;;;;;;25.77;10.43;;;-2.80;99.90;;;;;;5012174;28;20454;-67
2022/12/17 19:41:06;;;;;;;21.07;9.10;;;-2.70;99.90;;;;;;5022602;28;20536;-66
2022/12/17 19:43:32;;;;;;;24.60;10.27;;;-2.70;99.90;;;;;;5023192;28;20240;-67
2022/12/17 19:46:03;;;;;;;20.67;9.13;;;-2.80;99.90;;;;;;5002141;28;20518;-66
2022/12/17 19:48:30;;;;;;;34.57;11.57;;;-2.70;99.90;;;;;;5021675;28;20473;-67
2022/12/17 19:50:56;;;;;;;22.83;8.47;;;-2.70;99.90;;;;;;5027086;28;20467;-67
2022/12/17 19:53:25;;;;;;;16.23;9.87;;;-2.70;99.90;;;;;;5027524;28;20529;-67
2022/12/17 19:55:52;;;;;;;20.07;8.63;;;-2.70;99.90;;;;;;5019502;28;20451;-66
2022/12/17 19:58:18;;;;;;;22.20;8.63;;;-2.70;99.90;;;;;;5023261;28;20486;-67
2022/12/17 20:00:43;;;;;;;28.50;10.90;;;-2.70;99.90;;;;;;5027235;28;20463;-67
2022/12/17 20:03:09;;;;;;;20.87;10.63;;;-2.70;99.90;;;;;;5024428;28;20217;-67
2022/12/17 20:05:35;;;;;;;28.93;10.30;;;-2.70;99.90;;;;;;5002917;28;20689;-67
2022/12/17 20:08:00;;;;;;;22.03;10.90;;;-2.70;99.90;;;;;;5026407;28;20220;-67
2022/12/17 20:10:26;;;;;;;26.00;10.00;;;-2.70;99.90;;;;;;5019287;28;20228;-67
2022/12/17 20:12:51;;;;;;;25.17;8.57;;;-2.80;99.90;;;;;;5015300;28;20229;-67
2022/12/17 20:15:17;;;;;;;20.87;8.83;;;-2.80;99.90;;;;;;5023584;28;20295;-68
2022/12/17 20:17:43;;;;;;;27.10;8.53;;;-2.80;99.90;;;;;;5009532;28;20239;-68
2022/12/17 20:20:09;;;;;;;17.27;10.03;;;-2.70;99.90;;;;;;5027093;28;20219;-67
2022/12/17 20:22:34;;;;;;;19.33;9.07;;;-2.70;99.90;;;;;;5025052;28;20274;-66
2022/12/17 20:25:03;;;;;;;14.43;6.70;;;-2.80;99.90;;;;;;5019974;28;20490;-67
2022/12/17 20:27:29;;;;;;;19.07;9.33;;;-2.70;99.90;;;;;;5013394;28;20743;-67
2022/12/17 20:29:55;;;;;;;15.70;6.97;;;-2.90;99.90;;;;;;4986883;28;20497;-67
2022/12/17 20:32:20;;;;;;;23.90;9.63;;;-2.80;99.90;;;;;;5020432;28;20595;-67
2022/12/17 20:34:46;;;;;;;24.03;8.67;;;-2.80;99.90;;;;;;5028052;28;20219;-67
2022/12/17 20:37:12;;;;;;;14.90;7.00;;;-2.80;99.90;;;;;;5026692;28;20217;-67
2022/12/17 20:39:37;;;;;;;17.90;8.23;;;-2.70;99.90;;;;;;5012158;28;20291;-67
2022/12/17 20:42:03;;;;;;;19.07;9.37;;;-2.70;99.90;;;;;;5029892;28;20226;-66
2022/12/17 20:44:29;;;;;;;25.73;8.53;;;-2.70;99.90;;;;;;5023359;28;20229;-67
2022/12/17 20:46:54;;;;;;;15.30;6.80;;;-2.60;99.90;;;;;;5024270;28;20232;-67
2022/12/17 20:49:20;;;;;;;21.67;10.63;;;-2.70;99.90;;;;;;5026716;28;20221;-68
2022/12/17 20:51:46;;;;;;;22.57;8.90;;;-2.70;99.90;;;;;;5021393;28;20223;-67
2022/12/17 20:54:12;;;;;;;25.70;10.37;;;-2.70;99.90;;;;;;5004746;28;20555;-67
2022/12/17 20:56:39;;;;;;;19.47;8.03;;;-2.80;99.90;;;;;;5025694;28;20245;-66
2022/12/17 20:59:07;;;;;;;23.80;7.70;;;-2.90;99.90;;;;;;5017806;28;20221;-67
2022/12/17 21:01:34;;;;;;;19.87;7.43;;;-2.80;99.90;;;;;;5023500;28;20452;-67
2022/12/17 21:04:01;;;;;;;20.10;7.57;;;-2.80;99.90;;;;;;5029074;28;20518;-68
2022/12/17 21:06:34;;;;;;;15.93;7.23;;;-2.80;99.90;;;;;;5024369;28;20538;-68
2022/12/17 21:09:00;;;;;;;17.30;8.67;;;-2.80;99.90;;;;;;5036512;28;20466;-68
2022/12/17 21:11:28;;;;;;;23.47;8.77;;;-2.80;99.90;;;;;;5020478;28;20537;-67
2022/12/17 21:13:54;;;;;;;20.77;9.20;;;-2.80;99.90;;;;;;5020302;28;20235;-67
2022/12/17 21:16:26;;;;;;;12.17;6.00;;;-2.80;99.90;;;;;;5024823;28;20539;-68
2022/12/17 21:18:52;;;;;;;21.77;9.80;;;-2.80;99.90;;;;;;5021416;28;20459;-68
2022/12/17 21:21:21;;;;;;;14.80;6.57;;;-2.80;99.90;;;;;;5031875;28;20487;-67
2022/12/17 21:23:48;;;;;;;17.60;7.90;;;-2.80;99.90;;;;;;5029981;28;20510;-68
2022/12/17 21:26:18;;;;;;;19.87;7.47;;;-2.90;99.90;;;;;;5023995;28;20459;-68
2022/12/17 21:28:45;;;;;;;27.43;8.10;;;-2.90;99.90;;;;;;5006321;28;20832;-67
2022/12/17 21:31:16;;;;;;;19.57;8.00;;;-2.80;99.90;;;;;;5026695;28;20452;-68
2022/12/17 21:33:42;;;;;;;18.60;8.83;;;-2.80;99.90;;;;;;5020817;28;20486;-67
2022/12/17 21:36:08;;;;;;;16.57;8.13;;;-2.80;99.90;;;;;;5014447;28;20459;-71
2022/12/17 21:38:34;;;;;;;19.77;8.13;;;-2.80;99.90;;;;;;5013625;28;20487;-68
2022/12/17 21:41:12;;;;;;;12.90;6.47;;;-2.80;99.90;;;;;;5009993;28;20224;-68
2022/12/17 21:43:38;;;;;;;28.10;8.87;;;-2.80;99.90;;;;;;5017981;28;20267;-67
2022/12/17 21:46:06;;;;;;;14.37;7.50;;;-2.80;99.90;;;;;;5017821;28;20467;-69
2022/12/17 21:48:32;;;;;;;22.70;8.50;;;-2.80;99.90;;;;;;5028409;28;20471;-68
2022/12/17 21:50:58;;;;;;;17.53;8.27;;;-2.90;99.90;;;;;;5005797;28;20529;-68
2022/12/17 21:53:24;;;;;;;18.23;7.30;;;-2.90;99.90;;;;;;5029690;28;20984;-69
2022/12/17 21:56:04;;;;;;;30.13;11.17;;;-2.80;99.90;;;;;;5028744;28;20471;-68
2022/12/17 21:58:31;;;;;;;27.03;13.00;;;-2.80;99.90;;;;;;5037064;28;20481;-68
2022/12/17 22:00:56;;;;;;;27.97;12.90;;;-2.80;99.90;;;;;;5029593;28;20464;-67
2022/12/17 22:03:22;;;;;;;30.93;15.10;;;-2.80;99.90;;;;;;5007244;28;20468;-69
2022/12/17 22:05:48;;;;;;;24.10;12.70;;;-2.80;99.90;;;;;;5028795;28;20252;-65
2022/12/17 22:08:14;;;;;;;19.03;10.13;;;-2.90;99.90;;;;;;5017538;28;20476;-68
2022/12/17 22:10:43;;;;;;;19.97;8.70;;;-3.00;99.90;;;;;;5014581;28;20229;-68
2022/12/17 22:15:56;;;;;;;20.07;7.83;;;-3.20;99.90;;;;;;5032132;28;20821;-67
2022/12/17 22:18:21;;;;;;;15.47;7.27;;;-3.30;99.90;;;;;;5004628;28;20467;-68
2022/12/17 22:21:00;;;;;;;17.87;7.23;;;-3.30;99.90;;;;;;5039204;28;20216;-69
2022/12/17 22:23:26;;;;;;;18.87;7.70;;;-3.40;99.90;;;;;;5021115;28;20294;-70
2022/12/17 22:25:52;;;;;;;21.90;7.53;;;-3.20;99.90;;;;;;5009616;28;20962;-68
2022/12/17 22:28:17;;;;;;;26.93;8.60;;;-3.00;99.90;;;;;;5018085;28;20217;-67
2022/12/17 22:33:28;;;;;;;17.53;6.60;;;-3.00;99.90;;;;;;5028970;28;20303;-68
2022/12/17 22:36:00;;;;;;;19.87;5.33;;;-3.00;99.90;;;;;;5014232;28;20515;-67
2022/12/17 22:38:25;;;;;;;18.47;6.83;;;-3.00;99.90;;;;;;5025556;28;20221;-69
2022/12/17 22:40:51;;;;;;;21.00;8.53;;;-3.00;99.90;;;;;;5028493;28;20458;-68
2022/12/17 22:43:29;;;;;;;18.70;8.90;;;-2.90;99.90;;;;;;5030872;28;20232;-68
2022/12/17 22:46:02;;;;;;;23.87;8.20;;;-2.80;99.90;;;;;;5010342;28;20236;-68
2022/12/17 22:48:29;;;;;;;23.63;6.50;;;-2.80;99.90;;;;;;5015963;28;20464;-67
2022/12/17 22:50:55;;;;;;;24.73;7.87;;;-2.80;99.90;;;;;;5012947;28;20460;-67
2022/12/17 22:53:22;;;;;;;20.60;8.10;;;-2.80;99.90;;;;;;5023069;28;20457;-66
2022/12/17 22:55:49;;;;;;;22.43;7.93;;;-2.80;99.90;;;;;;5001982;28;20494;-66
2022/12/17 22:58:16;;;;;;;17.43;7.50;;;-2.80;99.90;;;;;;5014534;28;20846;-66
2022/12/17 23:00:41;;;;;;;20.43;8.20;;;-2.90;99.90;;;;;;5029573;28;20472;-66
2022/12/17 23:03:07;;;;;;;22.50;7.90;;;-3.00;99.90;;;;;;5025923;28;20530;-69
2022/12/17 23:05:33;;;;;;;18.00;7.73;;;-2.90;99.90;;;;;;5019587;28;20236;-65
2022/12/17 23:07:59;;;;;;;17.73;8.70;;;-2.90;99.90;;;;;;5021954;28;20320;-66
2022/12/17 23:10:26;;;;;;;22.87;9.10;;;-2.90;99.90;;;;;;5027833;28;20229;-67
2022/12/17 23:12:53;;;;;;;18.93;6.57;;;-2.80;99.90;;;;;;5027144;28;20448;-67
2022/12/17 23:15:27;;;;;;;18.80;6.90;;;-2.90;99.90;;;;;;5036098;28;20502;-66
2022/12/17 23:17:54;;;;;;;17.87;7.33;;;-3.00;99.90;;;;;;5014375;28;20453;-66
2022/12/17 23:20:21;;;;;;;18.50;8.10;;;-3.00;99.90;;;;;;5025519;28;20478;-66
2022/12/17 23:22:46;;;;;;;17.93;9.67;;;-2.90;99.90;;;;;;5027429;28;20477;-66
2022/12/17 23:25:13;;;;;;;19.10;8.07;;;-2.90;99.90;;;;;;5008727;28;20456;-66
2022/12/17 23:27:41;;;;;;;16.50;6.40;;;-2.80;99.90;;;;;;5022094;28;20229;-66
2022/12/17 23:30:08;;;;;;;28.53;9.30;;;-2.80;99.90;;;;;;5008096;28;20464;-66
2022/12/17 23:32:35;;;;;;;20.00;7.03;;;-2.90;99.90;;;;;;5011133;28;20459;-66
2022/12/17 23:35:01;;;;;;;19.93;8.37;;;-2.80;99.90;;;;;;5022213;28;20459;-67
2022/12/17 23:37:26;;;;;;;17.53;6.20;;;-3.00;99.90;;;;;;5026301;28;20471;-67
2022/12/17 23:39:52;;;;;;;20.90;8.57;;;-3.20;99.90;;;;;;5018655;28;20221;-67
2022/12/17 23:42:18;;;;;;;19.03;8.40;;;-3.20;99.90;;;;;;5028760;28;20245;-67
2022/12/17 23:44:43;;;;;;;28.87;7.53;;;-3.10;99.90;;;;;;5048852;28;20224;-67
2022/12/17 23:47:09;;;;;;;23.60;8.20;;;-3.10;99.90;;;;;;5027936;28;20239;-67
2022/12/17 23:49:35;;;;;;;18.87;6.77;;;-3.00;99.90;;;;;;5019440;28;20228;-66
2022/12/17 23:52:00;;;;;;;20.73;8.60;;;-3.00;99.90;;;;;;5000222;28;20893;-66
2022/12/17 23:54:26;;;;;;;13.00;5.93;;;-3.00;99.90;;;;;;5019448;28;20213;-66
2022/12/17 23:56:52;;;;;;;18.87;7.83;;;-3.00;99.90;;;;;;5025733;28;20233;-66
2022/12/17 23:59:17;;;;;;;24.50;9.03;;;-3.00;99.90;;;;;;4998495;28;20217;-66
